Time;durP1;ratioP1;P1;durP2;ratioP2;P2;SDS_P1;SDS_P2;PMS_P1;PMS_P2;Temp;Humidity;BMP_temperature;BMP_pressure;BME280_temperature;BME280_humidity;BME280_pressure;Samples;Min_cycle;Max_cycle;Signal;HPM_P1;HPM_P2
2023/06/20 00:00:44;;;;;;;8.10;7.90;;;21.10;99.90;;;;;;5108832;28;20237;-84
2023/06/20 00:03:12;;;;;;;7.97;7.78;;;21.10;99.90;;;;;;5109499;28;20232;-84
2023/06/20 00:05:41;;;;;;;8.00;7.80;;;21.00;99.90;;;;;;5109307;28;20259;-84
2023/06/20 00:08:11;;;;;;;7.80;7.60;;;21.00;99.90;;;;;;5108990;28;20225;-85
2023/06/20 00:10:40;;;;;;;7.93;7.72;;;21.00;99.90;;;;;;5110160;28;20365;-84
2023/06/20 00:13:10;;;;;;;8.30;8.10;;;21.00;99.90;;;;;;5108373;28;20229;-85
2023/06/20 00:15:48;;;;;;;8.20;8.00;;;20.90;99.90;;;;;;5112183;28;20225;-84
2023/06/20 00:18:20;;;;;;;7.90;7.70;;;20.90;99.90;;;;;;5115855;28;20259;-84
2023/06/20 00:20:49;;;;;;;7.85;7.65;;;20.80;99.90;;;;;;5111082;28;20217;-84
2023/06/20 00:23:19;;;;;;;8.05;7.85;;;20.80;99.90;;;;;;5110556;28;20230;-84
2023/06/20 00:25:48;;;;;;;8.15;7.95;;;20.70;99.90;;;;;;5109136;28;20268;-83
2023/06/20 00:28:17;;;;;;;8.10;7.90;;;20.70;99.90;;;;;;5109806;28;20297;-83
2023/06/20 00:31:13;;;;;;;8.02;7.82;;;20.60;99.90;;;;;;5111984;28;20210;-84
2023/06/20 00:33:42;;;;;;;8.30;8.10;;;20.60;99.90;;;;;;5113760;28;20225;-84
2023/06/20 00:36:12;;;;;;;8.20;8.00;;;20.60;99.90;;;;;;5111702;28;20229;-84
2023/06/20 00:38:50;;;;;;;8.10;7.90;;;20.50;99.90;;;;;;5109287;28;20230;-84
2023/06/20 00:41:20;;;;;;;8.20;8.00;;;20.50;99.90;;;;;;5108803;28;20209;-84
2023/06/20 00:43:49;;;;;;;8.00;7.80;;;20.50;99.90;;;;;;5113216;28;20217;-84
2023/06/20 00:46:27;;;;;;;8.10;7.90;;;20.40;99.90;;;;;;5128767;28;20232;-85
2023/06/20 00:48:56;;;;;;;7.82;7.63;;;20.40;99.90;;;;;;5129589;28;20243;-84
2023/06/20 00:51:27;;;;;;;7.90;7.70;;;20.40;99.90;;;;;;5128700;28;20232;-83
2023/06/20 00:53:57;;;;;;;7.97;7.78;;;20.40;99.90;;;;;;5116864;28;20261;-84
2023/06/20 00:56:26;;;;;;;8.13;7.93;;;20.40;99.90;;;;;;5108139;28;20233;-84
2023/06/20 00:58:54;;;;;;;7.80;7.60;;;20.30;99.90;;;;;;5107888;28;20225;-85
2023/06/20 01:01:34;;;;;;;7.68;7.47;;;20.30;99.90;;;;;;5107804;28;20217;-84
2023/06/20 01:04:03;;;;;;;7.68;7.47;;;20.30;99.90;;;;;;5107733;28;20287;-84
2023/06/20 01:06:42;;;;;;;7.93;7.72;;;20.20;99.90;;;;;;5107957;28;20234;-84
2023/06/20 01:09:18;;;;;;;8.00;7.80;;;20.20;99.90;;;;;;5107973;28;20256;-85
2023/06/20 01:11:58;;;;;;;8.00;7.80;;;20.20;99.90;;;;;;5107408;28;20213;-85
2023/06/20 01:14:34;;;;;;;7.75;7.55;;;20.20;99.90;;;;;;5107985;28;20229;-85
2023/06/20 01:17:23;;;;;;;7.80;7.60;;;20.00;99.90;;;;;;5107972;28;20229;-84
2023/06/20 01:20:12;;;;;;;7.80;7.60;;;20.00;99.90;;;;;;5107217;28;20237;-84
2023/06/20 01:22:58;;;;;;;7.82;7.63;;;19.80;99.90;;;;;;5107012;28;20225;-84
2023/06/20 01:25:34;;;;;;;8.10;7.90;;;19.70;99.90;;;;;;5106210;28;20716;-84
2023/06/20 01:28:13;;;;;;;7.95;7.75;;;19.60;99.90;;;;;;5107817;28;20283;-84
2023/06/20 01:30:50;;;;;;;7.90;7.70;;;19.50;99.90;;;;;;5107776;28;20218;-84
2023/06/20 01:33:28;;;;;;;7.85;7.65;;;19.50;99.90;;;;;;5108128;28;20210;-84
2023/06/20 01:35:58;;;;;;;7.90;7.70;;;19.50;99.90;;;;;;5108204;28;20252;-85
2023/06/20 01:38:37;;;;;;;7.80;7.60;;;19.50;99.90;;;;;;5108015;28;20241;-84
2023/06/20 01:41:06;;;;;;;7.90;7.70;;;19.60;99.90;;;;;;5118974;28;20205;-84
2023/06/20 01:43:36;;;;;;;7.90;7.70;;;19.60;99.90;;;;;;5119817;27;20217;-84
2023/06/20 01:46:06;;;;;;;7.80;7.60;;;19.60;99.90;;;;;;5120510;27;20244;-84
2023/06/20 01:48:36;;;;;;;7.93;7.72;;;19.60;99.90;;;;;;5112430;28;20221;-84
2023/06/20 01:51:05;;;;;;;7.82;7.63;;;19.70;99.90;;;;;;5111023;28;20229;-85
2023/06/20 01:53:42;;;;;;;7.90;7.70;;;19.70;99.90;;;;;;5109186;28;20256;-84
2023/06/20 01:56:11;;;;;;;7.80;7.60;;;19.70;99.90;;;;;;5109275;28;20229;-84
2023/06/20 01:58:41;;;;;;;7.55;7.35;;;19.70;99.90;;;;;;5108300;28;20237;-84
2023/06/20 02:01:10;;;;;;;7.75;7.55;;;19.70;99.90;;;;;;5107165;28;20229;-84
2023/06/20 02:03:41;;;;;;;8.20;8.00;;;19.70;99.90;;;;;;5106193;28;20214;-85
2023/06/20 02:06:10;;;;;;;7.93;7.72;;;19.70;99.90;;;;;;5106978;28;20296;-84
2023/06/20 02:08:48;;;;;;;8.05;7.85;;;19.70;99.90;;;;;;5106692;28;20230;-85
2023/06/20 02:11:17;;;;;;;7.90;7.70;;;19.70;99.90;;;;;;5107104;28;20240;-84
2023/06/20 02:13:46;;;;;;;8.05;7.85;;;19.70;99.90;;;;;;5106396;28;20269;-84
2023/06/20 02:16:15;;;;;;;8.00;7.80;;;19.70;99.90;;;;;;5106002;28;20233;-84
2023/06/20 02:18:48;;;;;;;7.93;7.72;;;19.70;99.90;;;;;;5106562;28;20263;-84
2023/06/20 02:21:26;;;;;;;8.13;7.93;;;19.80;99.90;;;;;;5106240;28;20237;-84
2023/06/20 02:24:05;;;;;;;8.35;8.15;;;19.80;99.90;;;;;;5106489;28;20225;-84
2023/06/20 02:26:34;;;;;;;8.23;8.02;;;19.70;99.90;;;;;;5106253;28;20237;-84
2023/06/20 02:29:12;;;;;;;8.18;7.97;;;19.70;99.90;;;;;;5105630;28;20247;-84
2023/06/20 02:31:49;;;;;;;8.10;7.90;;;19.70;99.90;;;;;;5110268;28;20268;-83
2023/06/20 02:34:21;;;;;;;8.13;7.93;;;19.70;99.90;;;;;;5115540;28;20233;-84
2023/06/20 02:36:50;;;;;;;8.10;7.90;;;19.70;99.90;;;;;;5108704;28;20240;-84
2023/06/20 02:39:20;;;;;;;8.00;7.80;;;19.70;99.90;;;;;;5107673;28;20241;-84
2023/06/20 02:41:48;;;;;;;8.30;8.10;;;19.70;99.90;;;;;;5106578;28;20252;-84
2023/06/20 02:44:17;;;;;;;7.95;7.75;;;19.60;99.90;;;;;;5111806;28;20251;-84
2023/06/20 02:47:04;;;;;;;8.00;7.80;;;19.50;99.90;;;;;;5112125;28;20249;-84
2023/06/20 02:49:42;;;;;;;7.80;7.60;;;19.50;99.90;;;;;;5106968;28;20233;-84
2023/06/20 02:52:20;;;;;;;7.80;7.60;;;19.30;99.90;;;;;;5106886;28;20233;-84
2023/06/20 02:55:08;;;;;;;7.80;7.60;;;19.20;99.90;;;;;;5105354;28;20217;-84
2023/06/20 02:57:45;;;;;;;7.43;7.22;;;19.10;99.90;;;;;;5105470;28;20233;-84
2023/06/20 03:00:16;;;;;;;7.60;7.40;;;19.20;99.90;;;;;;5105226;28;20232;-84
2023/06/20 03:02:52;;;;;;;8.38;8.18;;;19.20;99.90;;;;;;5093136;28;20228;-84
2023/06/20 03:05:23;;;;;;;7.72;7.53;;;19.20;99.90;;;;;;5118204;28;20216;-84
2023/06/20 03:07:52;;;;;;;7.82;7.63;;;19.20;99.90;;;;;;5123142;28;20648;-84
2023/06/20 03:10:31;;;;;;;7.70;7.50;;;19.20;99.90;;;;;;5117598;28;20260;-84
2023/06/20 03:13:00;;;;;;;7.68;7.47;;;19.20;99.90;;;;;;5105377;28;20232;-84
2023/06/20 03:15:29;;;;;;;8.30;8.10;;;19.10;99.90;;;;;;5099262;28;20238;-84
2023/06/20 03:18:00;;;;;;;8.50;8.30;;;19.10;99.90;;;;;;5117050;28;20228;-84
2023/06/20 03:20:28;;;;;;;9.30;9.00;;;19.20;99.90;;;;;;5124762;28;20239;-84
2023/06/20 03:22:57;;;;;;;8.90;8.70;;;19.30;99.90;;;;;;5125243;28;20236;-84
2023/06/20 03:25:35;;;;;;;9.32;9.02;;;19.40;99.90;;;;;;5127926;28;20232;-84
2023/06/20 03:28:05;;;;;;;9.40;9.10;;;19.50;99.90;;;;;;5107645;28;20233;-84
2023/06/20 03:30:34;;;;;;;9.52;9.23;;;19.60;99.90;;;;;;5107792;28;20230;-84
2023/06/20 03:33:03;;;;;;;9.40;9.10;;;19.70;99.90;;;;;;5106936;28;20261;-84
2023/06/20 03:35:33;;;;;;;9.60;9.30;;;19.70;99.90;;;;;;5106075;28;20210;-84
2023/06/20 03:38:05;;;;;;;9.45;9.15;;;19.80;99.90;;;;;;5104978;28;20233;-83
2023/06/20 03:40:34;;;;;;;9.70;9.40;;;19.80;99.90;;;;;;5107487;28;20243;-84
2023/06/20 03:43:02;;;;;;;9.68;9.38;;;19.90;99.90;;;;;;5106317;28;20293;-84
2023/06/20 03:45:31;;;;;;;9.75;9.45;;;20.00;99.90;;;;;;5115027;28;20233;-84
2023/06/20 03:48:01;;;;;;;9.57;9.27;;;20.10;99.90;;;;;;5127503;27;20325;-84
2023/06/20 03:50:30;;;;;;;9.38;9.07;;;20.10;99.90;;;;;;5127911;28;20237;-84
2023/06/20 03:52:59;;;;;;;9.10;8.80;;;20.20;99.90;;;;;;5128305;28;20248;-84
2023/06/20 03:55:29;;;;;;;9.25;8.95;;;20.30;99.90;;;;;;5128251;28;20271;-84
2023/06/20 03:58:07;;;;;;;9.10;8.80;;;20.30;99.90;;;;;;5127823;28;20286;-84
2023/06/20 04:00:38;;;;;;;9.32;9.02;;;20.40;99.90;;;;;;5127838;28;20236;-84
2023/06/20 04:03:06;;;;;;;9.40;9.10;;;20.40;99.90;;;;;;5127666;28;20227;-83
2023/06/20 04:05:35;;;;;;;9.48;9.18;;;20.50;99.90;;;;;;5127176;28;20228;-84
2023/06/20 04:08:05;;;;;;;9.30;9.00;;;20.50;99.90;;;;;;5126753;28;20237;-83
2023/06/20 04:10:34;;;;;;;9.30;9.00;;;20.50;99.90;;;;;;5126731;28;20253;-84
2023/06/20 04:13:15;;;;;;;9.45;9.15;;;20.50;99.90;;;;;;5126584;28;20236;-84
2023/06/20 04:15:43;;;;;;;9.43;9.13;;;20.40;99.90;;;;;;5126458;28;20229;-84
2023/06/20 04:18:13;;;;;;;9.10;8.80;;;20.40;99.90;;;;;;5127155;28;20243;-84
2023/06/20 04:20:45;;;;;;;8.90;8.70;;;20.40;99.90;;;;;;5127146;28;20333;-84
2023/06/20 04:23:12;;;;;;;8.50;8.30;;;20.40;99.90;;;;;;5126662;28;20228;-83
2023/06/20 04:25:42;;;;;;;9.10;8.80;;;20.30;99.90;;;;;;5126882;28;20239;-83
2023/06/20 04:28:17;;;;;;;8.88;8.68;;;20.20;99.90;;;;;;5126173;28;20232;-84
2023/06/20 04:30:50;;;;;;;8.70;8.50;;;20.20;99.90;;;;;;5125741;28;20290;-83
2023/06/20 04:33:19;;;;;;;8.35;8.15;;;20.20;99.90;;;;;;5125317;28;20238;-83
2023/06/20 04:35:48;;;;;;;8.48;8.27;;;20.20;99.90;;;;;;5126958;28;20239;-83
2023/06/20 04:38:17;;;;;;;8.40;8.20;;;20.20;99.90;;;;;;5150113;22;20263;-87
2023/06/20 04:40:47;;;;;;;8.60;8.40;;;20.20;99.90;;;;;;5142050;27;20269;-87
2023/06/20 04:43:25;;;;;;;9.00;8.70;;;20.10;99.90;;;;;;5142346;27;20264;-87
2023/06/20 04:45:56;;;;;;;8.80;8.60;;;20.10;99.90;;;;;;5124707;28;20228;-88
2023/06/20 04:48:35;;;;;;;8.70;8.50;;;20.10;99.90;;;;;;5124226;28;20239;-87
2023/06/20 04:51:08;;;;;;;8.70;8.50;;;20.10;99.90;;;;;;5124343;28;20227;-88
2023/06/20 04:53:41;;;;;;;8.38;8.18;;;20.10;99.90;;;;;;5124192;28;20227;-88
2023/06/20 04:56:09;;;;;;;8.80;8.60;;;20.20;99.90;;;;;;5124594;28;20213;-88
2023/06/20 05:01:27;;;;;;;8.68;8.48;;;20.30;99.90;;;;;;5123753;28;20232;-88
2023/06/20 05:03:55;;;;;;;9.10;8.80;;;20.40;99.90;;;;;;5124337;28;20320;-88
2023/06/20 05:06:25;;;;;;;8.77;8.57;;;20.50;99.90;;;;;;5124251;28;21005;-88
2023/06/20 05:08:54;;;;;;;9.40;9.10;;;20.50;99.90;;;;;;5124231;27;20694;-88
2023/06/20 05:11:24;;;;;;;9.10;8.80;;;20.60;99.90;;;;;;5124252;28;20296;-88
2023/06/20 05:13:56;;;;;;;9.40;9.10;;;20.50;99.90;;;;;;5124345;28;20235;-89
2023/06/20 05:16:24;;;;;;;9.43;9.13;;;20.50;99.90;;;;;;5141272;27;20224;-88
2023/06/20 05:18:52;;;;;;;9.30;9.00;;;20.70;99.90;;;;;;5144477;27;20231;-88
2023/06/20 05:21:22;;;;;;;9.18;8.88;;;20.80;99.90;;;;;;5144148;27;20240;-88
2023/06/20 05:23:51;;;;;;;9.40;9.10;;;20.90;99.90;;;;;;5148216;27;20228;-88
2023/06/20 05:26:21;;;;;;;9.68;9.38;;;21.10;99.90;;;;;;5154894;27;20269;-88
2023/06/20 05:28:50;;;;;;;10.10;9.80;;;21.30;99.90;;;;;;5144147;27;20231;-88
2023/06/20 05:31:30;;;;;;;9.95;9.65;;;21.40;99.90;;;;;;5144608;27;20232;-88
2023/06/20 05:33:57;;;;;;;9.82;9.52;;;21.50;99.90;;;;;;5144068;27;20224;-88
2023/06/20 05:36:28;;;;;;;9.48;9.18;;;21.60;99.90;;;;;;5144630;27;20224;-87
2023/06/20 05:38:58;;;;;;;10.20;9.90;;;21.60;99.90;;;;;;5142646;27;20411;-85
2023/06/20 05:41:26;;;;;;;10.00;9.70;;;21.60;99.90;;;;;;5143142;27;20224;-85
2023/06/20 05:43:56;;;;;;;9.80;9.50;;;21.60;99.90;;;;;;5142983;27;20235;-87
2023/06/20 05:46:27;;;;;;;9.30;9.00;;;21.60;99.90;;;;;;5134621;27;20221;-84
2023/06/20 05:48:59;;;;;;;9.80;9.50;;;21.60;99.90;;;;;;5123795;28;20240;-82
2023/06/20 05:51:33;;;;;;;10.00;9.70;;;21.50;99.90;;;;;;5137772;27;20243;-86
2023/06/20 05:54:02;;;;;;;9.40;9.10;;;21.60;99.90;;;;;;5142448;27;20208;-85
2023/06/20 05:56:31;;;;;;;9.75;9.45;;;21.60;99.90;;;;;;5139735;27;20201;-87
2023/06/20 05:59:01;;;;;;;9.60;9.30;;;21.50;99.90;;;;;;5126368;27;20267;-86
2023/06/20 06:01:34;;;;;;;10.00;9.70;;;21.40;99.90;;;;;;5122718;28;20315;-85
2023/06/20 06:04:01;;;;;;;10.30;10.00;;;21.30;99.90;;;;;;5122408;28;20242;-85
2023/06/20 06:06:29;;;;;;;9.70;9.40;;;21.20;99.90;;;;;;5124606;27;20270;-85
2023/06/20 06:08:59;;;;;;;8.93;8.73;;;21.10;99.90;;;;;;5135107;27;20241;-86
2023/06/20 06:11:28;;;;;;;8.57;8.38;;;21.00;99.90;;;;;;5131690;27;20225;-86
2023/06/20 06:13:58;;;;;;;8.77;8.57;;;21.00;99.90;;;;;;5122679;28;20225;-86
2023/06/20 06:16:27;;;;;;;9.20;8.90;;;20.90;99.90;;;;;;5125158;28;20284;-86
2023/06/20 06:19:16;;;;;;;9.80;9.50;;;20.90;99.90;;;;;;5127214;28;20228;-86
2023/06/20 06:21:45;;;;;;;9.77;9.48;;;20.90;99.90;;;;;;5123986;27;20256;-83
2023/06/20 07:31:47;;;;;;;10.30;10.00;;;22.70;99.90;;;;;;5092248;28;20281;-83
2023/06/20 07:34:17;;;;;;;10.35;10.05;;;22.80;99.90;;;;;;5097061;28;20240;-81
2023/06/20 07:36:46;;;;;;;10.50;10.20;;;22.90;99.90;;;;;;5100653;28;20265;-83
2023/06/20 07:39:24;;;;;;;10.50;10.20;;;23.00;99.90;;;;;;5100658;28;20236;-82
2023/06/20 07:42:14;;;;;;;10.82;10.52;;;23.00;99.90;;;;;;5101408;28;20249;-83
2023/06/20 07:44:58;;;;;;;11.05;10.75;;;23.10;99.90;;;;;;5079537;28;20260;-84
2023/06/20 07:47:27;;;;;;;10.95;10.65;;;23.10;99.90;;;;;;5099840;28;20233;-83
2023/06/20 07:49:58;;;;;;;10.80;10.50;;;23.10;99.90;;;;;;5107585;28;20260;-81
2023/06/20 07:52:30;;;;;;;10.90;10.60;;;23.10;99.90;;;;;;5099358;28;20316;-84
2023/06/20 07:57:43;;;;;;;10.85;10.55;;;23.30;99.90;;;;;;5113208;27;20217;-79
2023/06/20 08:00:22;;;;;;;10.90;10.60;;;23.40;99.90;;;;;;5123008;27;20206;-81
2023/06/20 08:02:50;;;;;;;10.85;10.55;;;23.60;99.90;;;;;;5118721;27;20237;-83
2023/06/20 08:05:21;;;;;;;11.10;10.80;;;23.70;99.90;;;;;;5108449;28;20279;-85
2023/06/20 08:07:51;;;;;;;10.90;10.60;;;23.70;99.90;;;;;;5108739;28;20282;-82
2023/06/20 08:10:24;;;;;;;11.10;10.80;;;23.90;99.90;;;;;;5111292;27;20236;-84
2023/06/20 08:12:52;;;;;;;11.07;10.77;;;24.00;99.90;;;;;;5090939;28;20221;-84
2023/06/20 08:16:00;;;;;;;11.00;10.70;;;24.10;99.90;;;;;;5093853;28;20211;-87
2023/06/20 08:19:04;;;;;;;;;;;;;;;;;;;;;
2023/06/20 08:21:52;;;;;;;11.40;11.02;;;24.20;99.90;;;;;;5092610;28;20312;-86
2023/06/20 08:24:54;;;;;;;11.20;10.90;;;24.30;99.90;;;;;;5103835;28;20225;-85
2023/06/20 08:37:48;;;;;;;11.10;10.80;;;24.80;99.90;;;;;;5105025;28;20399;-88
2023/06/20 08:49:16;;;;;;;10.82;10.52;;;25.20;99.90;;;;;;5107115;28;20217;-84
2023/06/20 08:51:52;;;;;;;10.63;10.32;;;25.30;99.90;;;;;;5076892;28;20230;-87
2023/06/20 08:54:28;;;;;;;10.70;10.40;;;25.40;99.90;;;;;;5078541;28;20225;-82
2023/06/20 08:56:56;;;;;;;10.90;10.60;;;25.50;99.90;;;;;;5064112;28;20697;-82
2023/06/20 08:59:27;;;;;;;11.18;10.88;;;25.50;99.90;;;;;;5063745;28;20329;-83
2023/06/20 09:01:57;;;;;;;10.80;10.50;;;25.60;99.90;;;;;;5064757;28;20227;-82
2023/06/20 09:04:35;;;;;;;10.90;10.60;;;25.90;99.90;;;;;;5065650;28;20227;-82
2023/06/20 09:07:22;;;;;;;10.88;10.57;;;26.10;99.90;;;;;;5065682;28;20246;-83
2023/06/20 09:09:50;;;;;;;11.45;11.10;;;26.20;99.90;;;;;;5064222;28;20227;-84
2023/06/20 09:12:20;;;;;;;11.00;10.70;;;26.30;99.90;;;;;;5079161;28;20214;-83
2023/06/20 09:14:50;;;;;;;11.00;10.70;;;26.50;99.90;;;;;;5083662;28;20260;-83
2023/06/20 09:17:20;;;;;;;11.23;10.93;;;26.70;99.90;;;;;;5082629;28;20229;-83
2023/06/20 09:19:48;;;;;;;11.18;10.88;;;26.90;99.90;;;;;;5083005;28;20237;-84
2023/06/20 09:22:21;;;;;;;11.00;10.70;;;27.00;99.90;;;;;;5087962;28;20222;-83
2023/06/20 09:24:49;;;;;;;11.18;10.88;;;26.90;99.90;;;;;;5092578;28;20288;-83
2023/06/20 09:27:16;;;;;;;11.00;10.70;;;27.00;99.90;;;;;;5097217;28;20258;-82
2023/06/20 09:29:56;;;;;;;10.82;10.52;;;27.00;99.90;;;;;;5087108;28;20284;-82
2023/06/20 09:32:24;;;;;;;11.15;10.85;;;27.30;99.90;;;;;;5087516;28;20222;-82
2023/06/20 09:34:53;;;;;;;11.05;10.75;;;27.50;99.90;;;;;;5088117;28;20265;-83
2023/06/20 09:37:26;;;;;;;11.40;11.10;;;27.90;99.90;;;;;;5085005;28;20294;-84
2023/06/20 09:39:53;;;;;;;11.60;11.20;;;28.30;99.90;;;;;;5084867;28;20229;-82
2023/06/20 09:42:21;;;;;;;11.50;11.10;;;28.70;99.90;;;;;;5084145;28;20707;-82
2023/06/20 09:44:51;;;;;;;11.43;11.10;;;28.80;99.90;;;;;;5084595;28;20234;-83
2023/06/20 09:47:20;;;;;;;10.80;10.50;;;28.80;99.90;;;;;;5083968;28;20325;-84
2023/06/20 09:49:49;;;;;;;10.63;10.32;;;28.60;99.90;;;;;;5082773;28;20238;-82
2023/06/20 09:52:19;;;;;;;10.70;10.40;;;28.70;99.90;;;;;;5083045;28;20214;-82
2023/06/20 09:54:57;;;;;;;10.65;10.35;;;29.00;99.90;;;;;;5086476;28;20256;-81
2023/06/20 09:57:36;;;;;;;10.30;10.00;;;29.40;99.90;;;;;;5088749;28;20233;-82
2023/06/20 10:00:15;;;;;;;10.40;10.10;;;29.20;99.90;;;;;;5084430;28;20242;-84
2023/06/20 10:02:45;;;;;;;10.30;10.00;;;29.30;99.90;;;;;;5101220;27;20277;-80
2023/06/20 10:05:15;;;;;;;10.30;10.00;;;29.20;99.90;;;;;;5121395;27;20213;-80
2023/06/20 10:07:44;;;;;;;10.50;10.20;;;29.00;99.90;;;;;;5120601;27;20222;-82
2023/06/20 10:10:23;;;;;;;10.70;10.40;;;28.70;99.90;;;;;;5106461;28;20225;-84
2023/06/20 10:12:51;;;;;;;10.38;10.07;;;28.80;99.90;;;;;;5107879;28;21022;-83
2023/06/20 10:15:19;;;;;;;10.60;10.30;;;29.10;99.90;;;;;;5111589;28;20229;-84
2023/06/20 10:17:52;;;;;;;10.40;10.10;;;29.30;99.90;;;;;;5104122;28;20229;-83
2023/06/20 10:20:31;;;;;;;10.70;10.40;;;29.70;99.90;;;;;;5102760;28;20255;-83
2023/06/20 10:23:00;;;;;;;10.70;10.40;;;30.10;99.90;;;;;;5105233;28;20243;-84
2023/06/20 10:25:38;;;;;;;10.57;10.27;;;30.20;99.90;;;;;;5106903;28;20236;-84
2023/06/20 10:28:07;;;;;;;10.70;10.40;;;30.30;99.90;;;;;;5105246;28;20225;-83
2023/06/20 10:31:04;;;;;;;10.60;10.30;;;30.50;99.90;;;;;;5103295;28;20217;-84
2023/06/20 10:33:33;;;;;;;11.05;10.75;;;30.80;99.90;;;;;;5040640;28;20232;-84
2023/06/20 10:36:12;;;;;;;10.90;10.60;;;31.00;99.90;;;;;;5089220;28;20229;-84
2023/06/20 16:43:41;;;;;;;10.40;10.10;;;37.30;99.90;;;;;;5039559;28;20241;-77
2023/06/20 16:46:10;;;;;;;10.25;9.95;;;37.20;99.90;;;;;;5040913;28;20329;-78
2023/06/20 16:48:37;;;;;;;10.30;10.00;;;37.30;99.90;;;;;;5041299;28;20236;-78
2023/06/20 16:51:05;;;;;;;9.85;9.55;;;37.40;99.90;;;;;;5042957;28;20270;-77
2023/06/20 16:53:33;;;;;;;9.95;9.65;;;37.40;99.90;;;;;;5044369;28;20224;-77
2023/06/20 16:56:00;;;;;;;9.90;9.60;;;37.60;99.90;;;;;;5040857;28;20239;-77
2023/06/20 16:58:28;;;;;;;9.82;9.52;;;37.70;99.90;;;;;;5040836;28;20235;-77
2023/06/20 17:00:57;;;;;;;9.98;9.68;;;37.90;99.90;;;;;;5039477;28;20712;-76
2023/06/20 17:03:25;;;;;;;10.23;9.93;;;37.90;99.90;;;;;;5047730;28;20273;-77
2023/06/20 17:05:52;;;;;;;10.20;9.90;;;37.80;99.90;;;;;;5043406;28;20241;-77
2023/06/20 17:08:20;;;;;;;10.30;10.00;;;37.70;99.90;;;;;;5061553;28;20237;-78
2023/06/20 17:10:47;;;;;;;10.32;10.02;;;37.60;99.90;;;;;;5059722;28;20281;-77
2023/06/20 17:13:15;;;;;;;10.20;9.90;;;37.40;99.90;;;;;;5049405;28;20287;-78
2023/06/20 17:15:42;;;;;;;10.23;9.93;;;37.40;99.90;;;;;;5032080;28;20238;-77
2023/06/20 17:18:13;;;;;;;10.65;10.35;;;37.70;99.90;;;;;;5048100;28;20234;-77
2023/06/20 17:20:41;;;;;;;10.23;9.93;;;37.70;99.90;;;;;;5072381;28;20321;-77
2023/06/20 17:23:08;;;;;;;10.48;10.18;;;37.50;99.90;;;;;;5054880;28;20247;-77
2023/06/20 17:25:36;;;;;;;10.70;10.40;;;37.10;99.90;;;;;;5048181;28;20238;-77
2023/06/20 17:28:03;;;;;;;10.55;10.25;;;36.90;99.90;;;;;;5042597;28;20266;-77
2023/06/20 17:30:31;;;;;;;10.38;10.07;;;37.00;99.90;;;;;;5039331;28;20236;-77
2023/06/20 17:32:59;;;;;;;10.63;10.32;;;37.00;99.90;;;;;;5039455;28;20252;-77
2023/06/20 17:35:28;;;;;;;10.80;10.50;;;36.80;99.90;;;;;;5044024;28;20231;-77
2023/06/20 17:37:55;;;;;;;11.00;10.70;;;36.40;99.90;;;;;;5037213;28;20250;-78
2023/06/20 17:40:23;;;;;;;10.50;10.20;;;35.90;99.90;;;;;;5037466;28;20310;-76
2023/06/20 17:42:50;;;;;;;10.60;10.30;;;35.50;99.90;;;;;;5035784;28;20239;-76
2023/06/20 17:45:18;;;;;;;10.40;10.10;;;35.30;99.90;;;;;;5033841;28;20262;-75
2023/06/20 17:47:46;;;;;;;10.52;10.23;;;35.10;99.90;;;;;;5038250;28;20220;-76
2023/06/20 17:50:14;;;;;;;10.70;10.40;;;34.90;99.90;;;;;;5047059;28;20242;-77
2023/06/20 17:52:45;;;;;;;10.20;9.90;;;34.60;99.90;;;;;;5040757;28;20216;-77
2023/06/20 17:55:12;;;;;;;10.20;9.90;;;34.20;99.90;;;;;;5044703;28;20296;-77
2023/06/20 17:57:40;;;;;;;10.48;10.18;;;33.90;99.90;;;;;;5039421;28;20240;-78
2023/06/20 18:00:09;;;;;;;10.43;10.13;;;33.80;99.90;;;;;;5045561;28;20235;-78
2023/06/20 18:02:37;;;;;;;10.57;10.27;;;33.60;99.90;;;;;;5049779;28;20338;-77
2023/06/20 18:05:05;;;;;;;10.15;9.85;;;33.40;99.90;;;;;;5033504;28;20241;-77
2023/06/20 18:07:32;;;;;;;10.27;9.98;;;33.30;99.90;;;;;;5039476;28;20227;-77
2023/06/20 18:10:04;;;;;;;10.30;10.00;;;33.10;99.90;;;;;;5039278;28;20224;-78
2023/06/20 18:12:31;;;;;;;9.90;9.60;;;33.00;99.90;;;;;;5040734;28;20216;-77
2023/06/20 18:14:59;;;;;;;9.95;9.65;;;32.80;99.90;;;;;;5054917;28;20238;-76
2023/06/20 18:17:27;;;;;;;10.00;9.70;;;32.70;99.90;;;;;;5050027;28;20234;-76
2023/06/20 18:19:54;;;;;;;10.00;9.70;;;32.60;99.90;;;;;;5043908;28;20262;-75
2023/06/20 18:22:22;;;;;;;9.77;9.48;;;32.60;99.90;;;;;;5054386;28;20261;-76
2023/06/20 18:24:49;;;;;;;9.60;9.30;;;32.60;99.90;;;;;;5039209;28;20783;-77
2023/06/20 18:27:19;;;;;;;9.30;9.00;;;32.40;99.90;;;;;;5034231;28;20231;-75
2023/06/20 18:29:46;;;;;;;9.70;9.40;;;32.30;99.90;;;;;;5040323;28;20231;-77
2023/06/20 18:32:14;;;;;;;9.90;9.60;;;32.20;99.90;;;;;;5052403;28;20239;-77
2023/06/20 18:34:42;;;;;;;9.85;9.55;;;32.10;99.90;;;;;;5052034;28;20233;-76
2023/06/20 18:37:09;;;;;;;9.77;9.48;;;32.00;99.90;;;;;;5053183;28;20245;-76
2023/06/20 18:39:37;;;;;;;9.68;9.38;;;31.90;99.90;;;;;;5051932;28;20257;-77
2023/06/20 18:42:05;;;;;;;9.80;9.50;;;31.80;99.90;;;;;;5049310;28;20239;-77
2023/06/20 18:44:34;;;;;;;9.80;9.50;;;31.60;99.90;;;;;;5043655;28;20267;-78
2023/06/20 18:47:02;;;;;;;9.85;9.55;;;31.60;99.90;;;;;;5051075;28;20285;-76
2023/06/20 18:49:30;;;;;;;9.88;9.57;;;31.50;99.90;;;;;;5061395;28;20231;-76
2023/06/20 18:51:57;;;;;;;9.90;9.60;;;31.50;99.90;;;;;;5033148;28;20236;-76
2023/06/20 18:54:25;;;;;;;9.63;9.32;;;31.50;99.90;;;;;;5047691;28;20925;-77
2023/06/20 18:56:54;;;;;;;10.10;9.80;;;31.40;99.90;;;;;;5041045;28;20235;-77
2023/06/20 18:59:22;;;;;;;10.00;9.70;;;31.30;99.90;;;;;;5042040;28;20227;-76
2023/06/20 19:01:52;;;;;;;9.60;9.30;;;31.20;99.90;;;;;;5047615;28;20293;-75
2023/06/20 19:04:21;;;;;;;9.60;9.30;;;31.10;99.90;;;;;;5040544;28;20262;-77
2023/06/20 19:06:48;;;;;;;9.60;9.30;;;31.00;99.90;;;;;;5037921;28;20231;-77
2023/06/20 19:09:16;;;;;;;9.55;9.25;;;30.90;99.90;;;;;;5043414;28;20227;-77
2023/06/20 19:11:44;;;;;;;9.50;9.20;;;30.90;99.90;;;;;;5051461;28;20235;-77
2023/06/20 19:14:11;;;;;;;9.30;9.00;;;30.80;99.90;;;;;;5039389;28;20252;-77
2023/06/20 19:16:42;;;;;;;9.30;9.00;;;30.70;99.90;;;;;;5039700;28;20258;-76
2023/06/20 19:19:11;;;;;;;9.40;9.10;;;30.60;99.90;;;;;;5049376;28;20231;-78
2023/06/20 19:21:39;;;;;;;9.20;8.90;;;30.40;99.90;;;;;;5041441;28;21064;-77
2023/06/20 19:24:08;;;;;;;9.38;9.07;;;30.30;99.90;;;;;;5042550;28;20312;-78
2023/06/20 19:26:35;;;;;;;9.60;9.30;;;30.20;99.90;;;;;;5042028;28;20318;-77
2023/06/20 19:29:05;;;;;;;9.20;8.90;;;30.00;99.90;;;;;;5049576;28;20236;-77
2023/06/20 19:31:38;;;;;;;9.20;8.90;;;29.90;99.90;;;;;;5041988;28;20236;-78
2023/06/20 19:34:09;;;;;;;9.35;9.05;;;29.70;99.90;;;;;;5037954;28;20227;-78
2023/06/20 19:36:38;;;;;;;8.98;8.77;;;29.60;99.90;;;;;;5041231;28;20231;-75
2023/06/20 19:39:06;;;;;;;9.10;8.80;;;29.40;99.90;;;;;;5040909;28;20352;-76
2023/06/20 19:41:34;;;;;;;8.90;8.65;;;29.20;99.90;;;;;;5049002;28;20247;-76
2023/06/20 19:44:04;;;;;;;8.90;8.70;;;28.80;99.90;;;;;;5054269;28;20239;-78
2023/06/20 19:46:32;;;;;;;8.80;8.60;;;28.50;99.90;;;;;;5063445;28;20699;-76
2023/06/20 19:49:01;;;;;;;9.50;9.20;;;28.30;99.90;;;;;;5062715;28;21056;-78
2023/06/20 19:51:32;;;;;;;9.68;9.38;;;28.10;99.90;;;;;;5060341;28;20254;-76
2023/06/20 19:54:01;;;;;;;9.68;9.38;;;28.00;99.90;;;;;;5062169;28;20233;-77
2023/06/20 19:56:29;;;;;;;9.70;9.40;;;28.00;99.90;;;;;;5060584;28;21136;-77
2023/06/20 19:58:58;;;;;;;9.43;9.13;;;28.00;99.90;;;;;;5060473;28;20298;-76
2023/06/20 20:01:26;;;;;;;9.50;9.20;;;28.00;99.90;;;;;;5060382;28;20230;-76
2023/06/20 20:03:55;;;;;;;9.23;8.93;;;28.00;99.90;;;;;;5060238;28;20322;-78
2023/06/20 20:06:23;;;;;;;9.20;8.90;;;28.10;99.90;;;;;;5059375;28;20321;-77
2023/06/20 20:08:51;;;;;;;9.23;8.93;;;28.10;99.90;;;;;;5055560;28;20242;-76
2023/06/20 20:11:20;;;;;;;9.30;9.00;;;28.10;99.90;;;;;;5036891;28;20279;-77
2023/06/20 20:13:48;;;;;;;9.40;9.10;;;28.10;99.90;;;;;;5040514;28;20219;-77
2023/06/20 20:16:17;;;;;;;9.35;9.05;;;28.10;99.90;;;;;;5040381;28;20239;-77
2023/06/20 20:18:44;;;;;;;9.60;9.30;;;28.10;99.90;;;;;;5044818;28;20368;-77
2023/06/20 20:21:12;;;;;;;9.45;9.15;;;28.10;99.90;;;;;;5054622;28;20326;-77
2023/06/20 20:23:39;;;;;;;9.20;8.90;;;28.10;99.90;;;;;;5040848;28;20295;-76
2023/06/20 20:26:07;;;;;;;9.40;9.10;;;28.00;99.90;;;;;;5046857;28;20234;-77
2023/06/20 20:28:36;;;;;;;9.40;9.10;;;27.90;99.90;;;;;;5052902;28;20261;-77
2023/06/20 20:31:03;;;;;;;8.80;8.60;;;27.80;99.90;;;;;;5062551;28;20310;-78
2023/06/20 20:33:31;;;;;;;9.18;8.90;;;27.80;99.90;;;;;;5043752;28;20227;-77
2023/06/20 20:35:59;;;;;;;8.90;8.70;;;27.70;99.90;;;;;;5040368;28;20282;-76
2023/06/20 20:38:26;;;;;;;8.60;8.40;;;27.70;99.90;;;;;;5043807;28;20262;-77
2023/06/20 20:40:54;;;;;;;8.70;8.50;;;27.70;99.90;;;;;;5041544;28;20258;-77